Time;durP1;ratioP1;P1;durP2;ratioP2;P2;SDS_P1;SDS_P2;PMS_P1;PMS_P2;Temp;Humidity;BMP_temperature;BMP_pressure;BME280_temperature;BME280_humidity;BME280_pressure;Samples;Min_cycle;Max_cycle;Signal;HPM_P1;HPM_P2
2023/03/19 00:00:32;;;;;;;15.20;9.43;;;;;;;9.67;100.00;100595.75;6004934;28;20090;-71
2023/03/19 00:03:27;;;;;;;17.20;9.63;;;;;;;9.72;100.00;100614.69;6003949;28;20062;-72
2023/03/19 00:06:24;;;;;;;20.20;10.00;;;;;;;9.65;100.00;100608.31;6005144;28;20419;-71
2023/03/19 00:09:20;;;;;;;22.67;10.55;;;;;;;9.68;100.00;100614.13;6004946;28;20077;-72
2023/03/19 00:12:15;;;;;;;18.73;10.18;;;;;;;9.68;100.00;100613.28;6004656;28;20132;-71
2023/03/19 00:15:13;;;;;;;18.08;9.45;;;;;;;9.80;100.00;100622.75;6006032;28;20043;-71
2023/03/19 00:18:09;;;;;;;18.13;9.98;;;;;;;9.79;100.00;100621.91;6005899;28;20039;-71
2023/03/19 00:21:04;;;;;;;15.73;9.82;;;;;;;9.77;100.00;100617.72;6006439;28;20034;-72
2023/03/19 00:24:01;;;;;;;15.82;8.77;;;;;;;9.76;100.00;100621.34;6005647;28;20034;-72
2023/03/19 00:26:56;;;;;;;14.65;9.05;;;;;;;9.68;100.00;100605.34;6006048;28;20062;-71
2023/03/19 00:29:52;;;;;;;15.67;9.33;;;;;;;9.65;100.00;100613.59;6005552;28;20117;-71
2023/03/19 00:32:47;;;;;;;17.13;9.20;;;;;;;9.76;100.00;100630.13;6005176;28;20533;-72
2023/03/19 00:35:42;;;;;;;17.10;9.63;;;;;;;9.78;100.00;100635.31;6005907;28;20266;-72
2023/03/19 00:38:38;;;;;;;17.37;10.23;;;;;;;9.76;100.00;100631.94;6005624;28;20053;-71
2023/03/19 00:41:33;;;;;;;18.00;9.60;;;;;;;9.70;100.00;100621.94;6005177;28;20027;-72
2023/03/19 00:44:29;;;;;;;19.10;10.20;;;;;;;9.65;100.00;100608.31;6002094;28;20030;-72
2023/03/19 00:47:24;;;;;;;19.17;10.20;;;;;;;9.68;100.00;100623.88;6003044;28;20023;-72
2023/03/19 00:50:20;;;;;;;20.05;10.23;;;;;;;9.53;100.00;100621.69;6002862;28;20062;-72
2023/03/19 00:53:16;;;;;;;16.58;9.82;;;;;;;9.51;100.00;100623.63;6003960;28;20039;-72
2023/03/19 00:56:13;;;;;;;19.05;9.75;;;;;;;9.43;100.00;100615.56;6005030;28;20483;-72
2023/03/19 00:59:08;;;;;;;17.00;9.77;;;;;;;9.34;100.00;100602.34;6004032;28;20089;-72
2023/03/19 01:02:04;;;;;;;17.27;8.93;;;;;;;9.32;100.00;100617.53;6004441;28;20382;-72
2023/03/19 01:04:59;;;;;;;16.27;8.98;;;;;;;9.13;100.00;100599.03;6000633;28;20122;-72
2023/03/19 01:07:54;;;;;;;17.37;9.57;;;;;;;9.06;100.00;100601.38;6005244;28;20081;-72
2023/03/19 01:10:51;;;;;;;20.38;8.73;;;;;;;9.11;100.00;100609.72;6003623;28;20043;-72
2023/03/19 01:13:46;;;;;;;16.80;9.95;;;;;;;9.12;100.00;100626.44;6004289;28;20093;-73
2023/03/19 01:16:42;;;;;;;15.05;9.10;;;;;;;9.06;100.00;100609.31;6004964;28;20046;-73
2023/03/19 01:19:37;;;;;;;14.50;8.70;;;;;;;8.97;100.00;100610.13;6005252;28;20071;-72
2023/03/19 01:22:35;;;;;;;12.80;8.30;;;;;;;9.08;100.00;100610.00;6004326;28;20808;-72
2023/03/19 01:25:30;;;;;;;15.88;8.35;;;;;;;8.98;100.00;100603.88;6004361;28;20070;-73
2023/03/19 01:28:26;;;;;;;14.43;7.80;;;;;;;8.94;100.00;100623.66;6005083;28;20035;-73
2023/03/19 01:31:21;;;;;;;14.20;8.20;;;;;;;8.79;100.00;100596.78;6004441;28;20058;-72
2023/03/19 01:34:16;;;;;;;11.90;7.53;;;;;;;8.76;100.00;100609.41;6003785;28;20278;-72
2023/03/19 01:37:12;;;;;;;16.77;8.27;;;;;;;8.50;100.00;100598.53;6004302;28;20301;-72
2023/03/19 01:40:12;;;;;;;14.65;8.20;;;;;;;8.46;100.00;100620.91;6004182;28;20030;-73
2023/03/19 01:43:16;;;;;;;11.20;7.15;;;;;;;8.58;100.00;100616.34;6003701;28;20031;-73
2023/03/19 01:46:26;;;;;;;15.80;7.90;;;;;;;8.67;100.00;100612.91;6004568;28;20406;-73
2023/03/19 01:49:22;;;;;;;13.02;7.55;;;;;;;8.48;100.00;100597.00;6019555;28;20106;-72
2023/03/19 01:52:17;;;;;;;15.48;6.80;;;;;;;8.62;100.00;100608.00;6003288;28;20037;-73
2023/03/19 01:55:12;;;;;;;11.65;7.43;;;;;;;8.65;100.00;100601.59;6019523;28;20042;-72
2023/03/19 01:58:08;;;;;;;12.53;7.27;;;;;;;8.58;100.00;100611.91;6004054;28;20046;-73
2023/03/19 02:01:03;;;;;;;12.35;7.53;;;;;;;8.33;100.00;100605.31;6002824;28;20054;-73
2023/03/19 02:03:59;;;;;;;15.17;8.27;;;;;;;8.36;100.00;100591.81;6003101;28;20150;-73
2023/03/19 02:06:55;;;;;;;16.73;7.00;;;;;;;8.35;100.00;100598.06;6003604;28;20777;-72
2023/03/19 02:09:51;;;;;;;11.80;6.97;;;;;;;8.55;100.00;100588.38;6004119;28;20478;-73
2023/03/19 02:12:47;;;;;;;14.27;8.63;;;;;;;8.81;100.00;100608.03;6003113;28;20042;-72
2023/03/19 02:15:42;;;;;;;13.20;7.32;;;;;;;8.61;100.00;100592.28;6003461;28;20395;-74
2023/03/19 02:18:37;;;;;;;13.00;7.43;;;;;;;8.67;100.00;100589.13;6003619;28;20041;-73
2023/03/19 02:21:33;;;;;;;12.53;7.47;;;;;;;8.79;100.00;100610.00;6003119;28;20274;-73
2023/03/19 02:24:33;;;;;;;11.20;7.00;;;;;;;8.74;100.00;100599.00;6002239;28;20122;-72
2023/03/19 02:27:28;;;;;;;13.48;7.50;;;;;;;8.63;100.00;100598.28;6002261;28;20357;-73
2023/03/19 02:30:31;;;;;;;14.70;7.80;;;;;;;8.61;100.00;100602.88;6018832;28;20045;-72
2023/03/19 02:33:26;;;;;;;13.18;7.15;;;;;;;8.60;100.00;100606.47;6002836;28;20035;-73
2023/03/19 02:36:22;;;;;;;17.07;7.80;;;;;;;8.57;100.00;100599.66;6002979;28;20533;-73
2023/03/19 02:39:25;;;;;;;16.67;7.88;;;;;;;8.55;100.00;100608.69;6002150;28;20451;-73
2023/03/19 02:42:23;;;;;;;14.30;8.80;;;;;;;8.50;100.00;100587.97;6002498;28;20035;-73
2023/03/19 02:45:18;;;;;;;15.55;9.55;;;;;;;8.54;100.00;100615.78;5988801;28;20057;-73
2023/03/19 02:48:14;;;;;;;13.97;8.27;;;;;;;8.58;100.00;100611.06;6000030;28;20043;-73
2023/03/19 02:51:09;;;;;;;14.37;8.90;;;;;;;8.58;100.00;100611.91;6003267;28;20085;-73
2023/03/19 02:54:05;;;;;;;14.43;8.50;;;;;;;8.58;100.00;100606.63;6002434;28;20038;-73
2023/03/19 02:57:00;;;;;;;17.70;8.65;;;;;;;8.67;100.00;100608.44;6002917;28;20027;-73
2023/03/19 02:59:55;;;;;;;14.00;7.60;;;;;;;8.64;100.00;100613.97;6002608;28;20031;-74
2023/03/19 03:02:51;;;;;;;15.43;7.70;;;;;;;8.58;100.00;100622.47;6001730;28;20069;-73
2023/03/19 03:05:46;;;;;;;15.52;7.75;;;;;;;8.65;100.00;100612.19;6002826;28;20047;-73
2023/03/19 03:08:41;;;;;;;12.77;7.87;;;;;;;8.67;100.00;100611.06;6002873;28;20027;-72
2023/03/19 03:11:37;;;;;;;13.97;7.07;;;;;;;8.53;100.00;100608.00;6002372;28;20298;-73
2023/03/19 03:14:32;;;;;;;11.85;6.88;;;;;;;8.45;100.00;100618.41;6001522;28;20470;-73
2023/03/19 03:17:28;;;;;;;13.77;6.93;;;;;;;8.09;100.00;100615.31;6002524;28;20042;-73
2023/03/19 03:20:23;;;;;;;12.75;7.40;;;;;;;8.21;100.00;100616.88;6002684;28;20038;-73
2023/03/19 03:23:20;;;;;;;16.10;7.72;;;;;;;8.12;100.00;100606.31;6001901;28;20030;-73
2023/03/19 03:26:16;;;;;;;16.13;8.02;;;;;;;8.20;100.00;100596.75;6001945;28;20034;-72
2023/03/19 03:29:11;;;;;;;14.15;7.15;;;;;;;8.14;100.00;100622.84;6002136;28;20034;-73
2023/03/19 03:32:07;;;;;;;13.17;7.10;;;;;;;8.05;100.00;100605.97;6001759;28;20402;-73
2023/03/19 03:35:04;;;;;;;14.45;8.45;;;;;;;8.12;100.00;100612.44;6006668;28;20103;-73
2023/03/19 03:37:59;;;;;;;17.33;8.32;;;;;;;8.05;100.00;100611.25;6007070;28;20105;-74
2023/03/19 03:40:54;;;;;;;14.03;6.50;;;;;;;8.03;100.00;100618.50;6006815;28;20093;-74
2023/03/19 03:43:50;;;;;;;12.00;7.13;;;;;;;7.91;100.00;100632.72;6006697;28;20273;-74
2023/03/19 03:46:45;;;;;;;16.33;7.85;;;;;;;7.65;100.00;100620.91;6006098;28;20065;-72
2023/03/19 03:49:40;;;;;;;14.70;7.13;;;;;;;7.68;100.00;100621.50;6007203;28;20027;-73
2023/03/19 03:52:37;;;;;;;15.77;7.93;;;;;;;7.76;100.00;100628.78;6005947;28;20597;-73
2023/03/19 03:55:33;;;;;;;17.30;8.30;;;;;;;7.66;100.00;100607.59;6006005;28;20093;-72
2023/03/19 03:58:28;;;;;;;14.38;8.32;;;;;;;7.76;100.00;100619.06;6007369;28;20054;-73
2023/03/19 04:01:24;;;;;;;15.98;9.30;;;;;;;7.88;100.00;100635.63;6006490;28;20471;-73
2023/03/19 04:04:19;;;;;;;21.93;10.47;;;;;;;7.73;100.00;100607.91;6005809;28;20042;-73
2023/03/19 04:07:15;;;;;;;18.05;10.73;;;;;;;7.85;100.00;100629.78;6006579;28;20072;-73
2023/03/19 04:10:10;;;;;;;22.83;10.63;;;;;;;7.83;100.00;100629.91;6006531;28;20386;-73
2023/03/19 04:13:06;;;;;;;23.80;11.15;;;;;;;7.80;100.00;100635.44;6005876;28;20398;-72
2023/03/19 04:16:10;;;;;;;20.73;11.17;;;;;;;7.67;100.00;100611.06;6006164;28;20045;-73
2023/03/19 04:19:06;;;;;;;19.80;10.80;;;;;;;7.76;100.00;100628.78;6006135;28;20050;-73
2023/03/19 04:22:02;;;;;;;17.08;9.25;;;;;;;7.82;100.00;100633.53;6005526;28;20475;-73
2023/03/19 04:24:57;;;;;;;12.40;7.95;;;;;;;7.87;100.00;100633.97;6005980;28;20121;-73
2023/03/19 04:27:56;;;;;;;17.93;8.43;;;;;;;7.94;100.00;100635.13;6006335;28;20031;-74
2023/03/19 04:30:51;;;;;;;19.65;8.93;;;;;;;7.59;100.00;100624.06;6005613;28;20270;-72
2023/03/19 04:33:47;;;;;;;13.67;8.27;;;;;;;7.57;100.00;100639.19;6005459;28;20035;-72
2023/03/19 04:36:42;;;;;;;16.23;9.48;;;;;;;7.61;100.00;100638.81;6005824;28;20097;-73
2023/03/19 04:39:38;;;;;;;20.45;10.15;;;;;;;7.54;100.00;100620.97;6005921;28;20041;-74
2023/03/19 04:42:33;;;;;;;18.25;10.63;;;;;;;7.64;100.00;100635.06;6005011;28;20039;-73
2023/03/19 04:45:30;;;;;;;19.00;11.15;;;;;;;7.61;100.00;100630.88;6005523;28;20383;-73
2023/03/19 04:48:25;;;;;;;19.85;10.90;;;;;;;7.67;100.00;100625.09;6005444;28;20426;-73
2023/03/19 04:51:20;;;;;;;21.17;11.07;;;;;;;7.68;100.00;100632.06;6005642;28;20030;-72
2023/03/19 04:54:15;;;;;;;20.10;12.07;;;;;;;7.59;100.00;100626.72;6005052;28;20038;-73
2023/03/19 04:57:11;;;;;;;21.00;11.90;;;;;;;7.69;100.00;100627.63;6005500;28;20768;-73
2023/03/19 05:00:08;;;;;;;20.23;11.50;;;;;;;7.62;100.00;100621.19;6005043;28;20042;-72
2023/03/19 05:03:04;;;;;;;20.35;10.98;;;;;;;7.59;100.00;100618.78;6004683;28;20320;-72
2023/03/19 05:05:59;;;;;;;16.73;10.13;;;;;;;7.69;100.00;100630.25;6003908;28;20040;-72
2023/03/19 05:08:54;;;;;;;22.03;11.77;;;;;;;7.68;100.00;100620.66;6005290;28;20497;-73
2023/03/19 05:11:50;;;;;;;24.63;11.43;;;;;;;7.76;100.00;100642.81;6004225;28;20274;-72
2023/03/19 05:14:45;;;;;;;22.05;11.85;;;;;;;7.71;100.00;100628.31;6005419;28;20427;-72
2023/03/19 05:17:41;;;;;;;23.17;12.60;;;;;;;7.80;100.00;100644.19;6005352;28;20038;-72
2023/03/19 05:20:37;;;;;;;17.83;11.48;;;;;;;7.72;100.00;100628.19;6004237;28;20031;-72
2023/03/19 05:23:32;;;;;;;22.70;12.40;;;;;;;7.80;100.00;100641.56;6004120;28;20038;-72
2023/03/19 05:26:28;;;;;;;22.90;12.37;;;;;;;7.81;100.00;100647.69;6004682;28;20033;-72
2023/03/19 05:29:23;;;;;;;17.87;10.50;;;;;;;7.87;100.00;100660.38;6005407;28;20026;-73
2023/03/19 05:32:19;;;;;;;20.67;11.47;;;;;;;7.86;100.00;100653.41;6003842;28;20038;-73
2023/03/19 05:35:14;;;;;;;17.95;9.80;;;;;;;7.85;100.00;100649.13;6004185;28;20498;-72
2023/03/19 05:38:10;;;;;;;15.95;9.48;;;;;;;7.82;100.00;100640.63;6003980;28;20031;-73
2023/03/19 05:41:06;;;;;;;18.10;8.95;;;;;;;7.84;100.00;100655.34;6004101;28;20039;-74
2023/03/19 05:44:01;;;;;;;22.60;10.23;;;;;;;7.72;100.00;100644.03;6003160;28;20027;-73
2023/03/19 05:46:57;;;;;;;14.02;8.18;;;;;;;7.79;100.00;100649.63;6003496;28;20185;-74
2023/03/19 05:49:52;;;;;;;17.80;9.80;;;;;;;7.78;100.00;100663.78;6003438;28;20041;-73
2023/03/19 05:52:47;;;;;;;15.27;8.97;;;;;;;7.68;100.00;100647.06;6003458;28;20022;-72
2023/03/19 05:55:43;;;;;;;15.93;8.77;;;;;;;7.67;100.00;100656.78;6002707;28;20090;-74
2023/03/19 05:58:38;;;;;;;16.83;9.50;;;;;;;7.67;100.00;100663.84;6003465;28;20031;-73
2023/03/19 06:01:33;;;;;;;16.20;9.27;;;;;;;7.67;100.00;100666.47;6003885;28;20126;-73
2023/03/19 06:04:29;;;;;;;17.17;9.23;;;;;;;7.59;100.00;100645.19;6003200;28;20069;-72
2023/03/19 06:07:24;;;;;;;20.60;9.50;;;;;;;7.56;100.00;100638.34;6004234;28;20035;-73
2023/03/19 06:10:20;;;;;;;18.87;10.27;;;;;;;7.77;100.00;100664.78;6003629;28;20038;-73
2023/03/19 06:13:15;;;;;;;21.65;10.18;;;;;;;7.60;100.00;100638.94;6003078;28;20489;-73
2023/03/19 06:16:11;;;;;;;21.80;11.25;;;;;;;7.84;100.00;100662.44;6002470;28;20038;-72
2023/03/19 06:19:06;;;;;;;22.85;12.43;;;;;;;7.96;100.00;100671.97;6003598;28;20027;-72
2023/03/19 06:22:01;;;;;;;21.93;11.67;;;;;;;7.96;100.00;100656.13;6003021;28;20053;-72
2023/03/19 06:24:57;;;;;;;22.23;11.70;;;;;;;8.08;100.00;100677.03;6003290;28;20031;-72
2023/03/19 06:27:52;;;;;;;16.83;9.80;;;;;;;8.06;100.00;100652.56;6000992;28;20093;-72
2023/03/19 06:30:47;;;;;;;18.70;9.60;;;;;;;8.26;100.00;100666.69;6000681;28;20113;-73
2023/03/19 06:33:42;;;;;;;15.27;8.67;;;;;;;8.49;100.00;100672.66;6001080;28;20329;-73
2023/03/19 06:36:38;;;;;;;18.83;8.83;;;;;;;8.67;100.00;100663.13;6001460;28;20262;-73
2023/03/19 06:39:33;;;;;;;12.37;7.10;;;;;;;8.71;100.00;100675.09;6002463;28;20117;-72
2023/03/19 06:42:29;;;;;;;16.73;7.97;;;;;;;8.74;100.00;100686.25;6002458;28;20309;-73
2023/03/19 06:45:24;;;;;;;16.38;7.75;;;;;;;8.85;100.00;100687.94;6003463;28;20039;-72
2023/03/19 06:48:20;;;;;;;11.00;6.67;;;;;;;8.90;100.00;100683.91;6002898;28;20039;-73
2023/03/19 06:51:15;;;;;;;14.30;6.20;;;;;;;9.14;100.00;100698.56;6003437;28;20034;-73
2023/03/19 06:54:10;;;;;;;11.17;5.80;;;;;;;9.22;100.00;100680.19;6002616;28;20039;-72
2023/03/19 06:57:06;;;;;;;12.10;5.10;;;;;;;9.33;100.00;100680.88;6002745;28;20039;-74
2023/03/19 07:00:03;;;;;;;15.05;4.68;;;;;;;9.38;100.00;100686.59;6002979;28;20363;-73
2023/03/19 07:02:58;;;;;;;9.25;5.03;;;;;;;9.39;100.00;100683.00;6000751;28;20081;-73
2023/03/19 07:05:54;;;;;;;10.20;5.78;;;;;;;9.58;100.00;100706.81;6001945;28;20038;-72
2023/03/19 07:08:49;;;;;;;8.70;5.40;;;;;;;9.65;100.00;100714.19;6001545;28;20043;-74
2023/03/19 07:11:44;;;;;;;13.37;5.30;;;;;;;9.75;100.00;100715.03;6002393;28;20045;-73
2023/03/19 07:14:40;;;;;;;9.02;4.63;;;;;;;9.92;100.00;100716.97;6002462;28;20054;-72
2023/03/19 07:17:35;;;;;;;11.33;5.27;;;;;;;10.03;100.00;100727.38;6002690;28;20054;-74
2023/03/19 07:20:31;;;;;;;9.27;4.85;;;;;;;10.15;100.00;100718.34;5990779;28;20302;-72
2023/03/19 07:23:26;;;;;;;11.88;4.35;;;;;;;10.48;100.00;100728.41;6001436;28;20034;-74
2023/03/19 07:26:21;;;;;;;11.10;5.10;;;;;;;10.41;100.00;100739.75;6001144;28;20029;-73
2023/03/19 07:29:17;;;;;;;8.00;4.70;;;;;;;10.32;100.00;100740.59;6001543;28;20019;-73
2023/03/19 07:32:13;;;;;;;10.77;4.77;;;;;;;10.34;100.00;100739.47;6001358;28;20135;-74
2023/03/19 07:35:09;;;;;;;7.35;4.43;;;;;;;10.32;100.00;100732.66;6001833;28;20026;-73
2023/03/19 07:38:04;;;;;;;9.85;4.10;;;;;;;10.31;100.00;100745.06;6001445;28;20041;-73
2023/03/19 07:41:00;;;;;;;9.75;4.72;;;;;;;10.30;100.00;100746.03;6001716;28;20043;-73
2023/03/19 07:43:55;;;;;;;7.97;4.20;;;;;;;10.34;100.00;100751.91;6001020;28;20031;-73
2023/03/19 07:46:51;;;;;;;9.97;4.70;;;;;;;10.41;100.00;100751.16;5995555;28;20038;-73
2023/03/19 07:49:46;;;;;;;12.50;4.85;;;;;;;10.37;100.00;100744.50;5999564;28;20062;-74
2023/03/19 07:52:45;;;;;;;7.93;4.20;;;;;;;10.41;100.00;100751.16;6000079;28;20034;-74
2023/03/19 07:55:40;;;;;;;11.65;3.88;;;;;;;10.52;100.00;100763.41;6001796;28;20041;-73
2023/03/19 07:58:35;;;;;;;7.90;4.13;;;;;;;10.52;100.00;100764.25;6001717;28;20035;-73
2023/03/19 08:01:31;;;;;;;9.17;4.23;;;;;;;10.49;100.00;100764.53;6001459;28;20289;-73
2023/03/19 08:04:26;;;;;;;9.25;4.15;;;;;;;10.24;100.00;100754.59;5998778;28;20035;-74
2023/03/19 08:07:22;;;;;;;9.10;4.70;;;;;;;10.12;100.00;100755.69;6000836;28;20042;-74
2023/03/19 08:10:17;;;;;;;10.63;5.13;;;;;;;10.08;100.00;100781.59;6001521;28;20529;-73
2023/03/19 08:13:13;;;;;;;9.88;4.70;;;;;;;10.08;100.00;100788.75;6000295;28;20038;-72
2023/03/19 08:16:08;;;;;;;10.23;5.00;;;;;;;10.05;100.00;100786.38;6001407;28;20027;-73
2023/03/19 08:19:03;;;;;;;9.25;4.28;;;;;;;10.02;100.00;100776.91;6001779;28;20270;-72
2023/03/19 08:21:59;;;;;;;6.60;3.63;;;;;;;10.09;100.00;100782.44;6004878;28;20033;-72
2023/03/19 08:24:54;;;;;;;12.55;4.40;;;;;;;10.03;100.00;100775.06;6005919;28;20035;-71
2023/03/19 08:27:50;;;;;;;9.03;4.00;;;;;;;10.05;100.00;100786.38;6005503;28;20035;-72
2023/03/19 08:30:45;;;;;;;8.13;4.38;;;;;;;9.93;100.00;100771.59;6005847;28;20038;-70
2023/03/19 08:33:41;;;;;;;6.53;3.67;;;;;;;9.95;100.00;100778.41;6004526;28;20046;-72
2023/03/19 08:36:36;;;;;;;8.20;3.63;;;;;;;9.91;100.00;100778.84;6004947;28;20270;-71
2023/03/19 08:39:31;;;;;;;7.23;3.20;;;;;;;9.91;100.00;100768.25;6005362;28;20070;-72
2023/03/19 08:42:27;;;;;;;8.93;3.33;;;;;;;9.98;100.00;100779.94;6003857;28;20274;-71
2023/03/19 08:45:23;;;;;;;7.22;2.63;;;;;;;10.01;100.00;100772.56;6005204;28;20035;-71
2023/03/19 08:48:18;;;;;;;8.43;3.20;;;;;;;9.97;100.00;100765.06;6005392;28;20117;-71
2023/03/19 08:51:14;;;;;;;9.07;3.75;;;;;;;10.08;100.00;100770.19;6004841;28;20164;-73
2023/03/19 08:54:10;;;;;;;8.10;2.60;;;;;;;10.07;100.00;100749.97;6004424;28;20035;-71
2023/03/19 08:57:05;;;;;;;2.95;1.63;;;;;;;10.20;100.00;100758.47;6005099;28;20110;-71
2023/03/19 09:00:01;;;;;;;4.30;2.00;;;;;;;10.33;100.00;100759.00;6005234;28;20045;-72
2023/03/19 09:02:57;;;;;;;2.55;1.60;;;;;;;10.35;100.00;100748.28;5999426;28;20043;-73
2023/03/19 09:05:52;;;;;;;4.67;2.07;;;;;;;10.54;100.00;100743.75;6001364;28;20475;-72
2023/03/19 09:08:47;;;;;;;4.03;2.00;;;;;;;11.00;100.00;100756.13;6004513;28;20039;-72
2023/03/19 09:11:43;;;;;;;5.67;1.50;;;;;;;11.25;100.00;100754.59;6004508;28;20039;-73
2023/03/19 09:14:38;;;;;;;3.83;1.50;;;;;;;11.66;100.00;100746.00;6004362;28;20027;-72
2023/03/19 09:17:34;;;;;;;2.83;1.40;;;;;;;12.30;100.00;100744.91;6019010;28;20490;-72
2023/03/19 09:20:30;;;;;;;3.35;1.17;;;;;;;12.77;100.00;100755.97;6004406;28;20073;-72
2023/03/19 09:23:26;;;;;;;7.28;1.52;;;;;;;13.13;100.00;100767.31;6004021;28;20026;-72
2023/03/19 09:26:21;;;;;;;2.35;0.90;;;;;;;13.37;96.42;100762.06;6004321;28;20094;-72
2023/03/19 09:29:16;;;;;;;4.20;0.90;;;;;;;13.79;92.99;100757.47;5999340;28;20072;-72
2023/03/19 09:32:12;;;;;;;1.83;0.50;;;;;;;13.61;89.00;100744.28;6001287;28;20053;-73
2023/03/19 09:35:07;;;;;;;1.15;0.60;;;;;;;13.63;88.25;100746.78;6003817;28;20526;-73
2023/03/19 09:38:03;;;;;;;0.50;0.35;;;;;;;13.95;88.17;100773.47;6003782;28;20042;-74
2023/03/19 09:41:05;;;;;;;0.87;0.50;;;;;;;13.78;87.22;100755.78;6003032;28;20563;-73
2023/03/19 09:44:03;;;;;;;2.90;0.60;;;;;;;14.01;85.64;100764.81;6003415;28;20418;-73
2023/03/19 09:47:17;;;;;;;1.65;0.70;;;;;;;14.35;81.90;100777.16;6018626;28;20478;-73
2023/03/19 09:50:19;;;;;;;0.88;0.50;;;;;;;14.34;81.44;100768.31;6003349;28;20045;-73
2023/03/19 09:53:40;;;;;;;4.15;0.80;;;;;;;14.40;80.75;100761.47;6001793;28;20498;-73
2023/03/19 09:56:35;;;;;;;1.60;0.60;;;;;;;15.00;80.87;100775.97;6018745;28;20038;-74
2023/03/19 09:59:31;;;;;;;0.60;0.50;;;;;;;15.28;79.02;100773.66;6002650;28;20062;-73
2023/03/19 10:02:42;;;;;;;1.23;0.60;;;;;;;15.18;77.13;100763.22;6001523;28;20034;-73
2023/03/19 10:06:01;;;;;;;1.30;0.70;;;;;;;15.32;79.04;100775.00;6002018;28;20467;-72
2023/03/19 10:09:21;;;;;;;2.10;0.80;;;;;;;15.43;77.06;100775.44;6000924;28;20042;-72
2023/03/19 10:12:40;;;;;;;2.88;0.88;;;;;;;15.34;77.13;100776.47;6001439;28;20478;-73
2023/03/19 10:15:37;;;;;;;;;;;;;;;15.19;79.98;100772.88;6001205;28;20034;-73
2023/03/19 10:18:38;;;;;;;2.60;1.10;;;;;;;15.19;78.64;100770.19;6002471;28;19917;-73
2023/03/19 10:21:41;;;;;;;0.88;0.68;;;;;;;15.23;79.16;100760.84;6017441;28;20050;-73
2023/03/19 10:24:38;;;;;;;3.78;0.77;;;;;;;15.37;80.37;100768.13;6016905;28;20031;-73
2023/03/19 10:27:33;;;;;;;3.05;1.05;;;;;;;15.32;82.55;100778.50;6014830;28;20049;-73
2023/03/19 10:30:32;;;;;;;3.40;1.10;;;;;;;15.56;79.89;100768.69;6001644;28;20031;-72
2023/03/19 10:33:48;;;;;;;1.08;0.60;;;;;;;15.57;76.28;100773.06;5999218;28;20776;-72
2023/03/19 10:36:44;;;;;;;1.25;0.80;;;;;;;15.51;73.96;100768.41;6001501;28;20109;-72
2023/03/19 10:39:41;;;;;;;2.20;1.00;;;;;;;15.72;75.12;100761.41;5993771;28;20475;-72
2023/03/19 10:43:12;;;;;;;2.47;1.17;;;;;;;16.05;75.50;100772.69;6001349;28;20027;-73
2023/03/19 10:46:12;;;;;;;2.58;1.20;;;;;;;15.93;75.11;100764.25;6006434;28;20035;-73
2023/03/19 10:49:11;;;;;;;;;;;;;;;16.06;72.33;100777.03;5994062;28;20041;-73
2023/03/19 10:52:19;;;;;;;1.40;0.80;;;;;;;16.03;72.38;100780.06;6001317;28;20365;-73
2023/03/19 10:55:17;;;;;;;2.58;1.00;;;;;;;15.89;71.14;100778.16;6002293;28;20041;-73
2023/03/19 10:58:18;;;;;;;1.90;1.00;;;;;;;16.35;71.34;100782.47;6001854;28;20034;-72
2023/03/19 11:01:14;;;;;;;2.58;1.08;;;;;;;16.54;71.78;100778.47;5999885;28;20031;-73
2023/03/19 11:04:15;;;;;;;3.38;1.33;;;;;;;16.67;64.98;100786.69;6000270;28;20505;-73
2023/03/19 11:07:18;;;;;;;6.10;1.27;;;;;;;16.00;66.69;100791.13;6017439;28;20479;-73
2023/03/19 11:10:15;;;;;;;4.85;1.27;;;;;;;16.01;68.12;100788.25;6000911;28;20037;-73
2023/03/19 11:13:23;;;;;;;2.55;1.15;;;;;;;16.62;67.42;100781.88;5995255;28;20034;-74
2023/03/19 11:16:18;;;;;;;3.70;1.50;;;;;;;17.04;65.95;100783.09;6002037;28;20121;-73
2023/03/19 11:19:19;;;;;;;3.70;1.60;;;;;;;16.77;67.15;100783.75;5998887;28;20039;-74
2023/03/19 11:22:19;;;;;;;4.50;1.88;;;;;;;17.08;65.68;100784.38;6001035;28;20061;-74
2023/03/19 11:25:22;;;;;;;2.95;1.63;;;;;;;16.44;66.28;100767.16;6001085;28;20113;-74
2023/03/19 11:28:24;;;;;;;4.45;1.42;;;;;;;16.58;67.49;100777.06;5998364;28;20061;-73
2023/03/19 11:31:42;;;;;;;2.45;1.20;;;;;;;16.76;67.39;100776.72;5996141;28;20029;-74
2023/03/19 11:34:58;;;;;;;2.95;1.20;;;;;;;17.14;65.42;100771.06;5994672;28;20035;-73
2023/03/19 11:37:55;;;;;;;4.13;1.35;;;;;;;16.65;67.76;100776.16;6015948;28;20035;-74
2023/03/19 11:41:08;;;;;;;4.07;1.80;;;;;;;17.09;67.24;100768.09;6000111;28;20038;-73
2023/03/19 11:44:28;;;;;;;3.08;1.40;;;;;;;16.93;66.39;100772.84;5996265;28;20438;-72
2023/03/19 11:47:31;;;;;;;;;;;;;;;16.59;66.46;100773.38;6014256;28;20038;-73
2023/03/19 11:50:34;;;;;;;3.35;1.52;;;;;;;16.71;66.65;100765.72;5999739;28;19909;-73
2023/03/19 11:53:34;;;;;;;5.95;1.60;;;;;;;16.43;67.40;100750.25;5983681;28;20403;-73
2023/03/19 11:57:07;;;;;;;5.80;1.73;;;;;;;16.62;68.32;100767.66;6003606;28;20030;-72
2023/03/19 12:00:07;;;;;;;;;;;;;;;16.97;68.27;100766.91;6003833;28;20038;-73
2023/03/19 12:03:24;;;;;;;3.13;1.20;;;;;;;17.20;64.28;100764.13;6004036;28;19918;-74
2023/03/19 12:06:34;;;;;;;2.95;1.25;;;;;;;16.65;66.34;100765.47;6005618;28;20042;-74
2023/03/19 12:09:52;;;;;;;4.20;1.30;;;;;;;16.88;67.73;100770.69;6005003;28;20110;-74
2023/03/19 12:12:59;;;;;;;3.60;1.50;;;;;;;16.98;64.86;100767.75;5999256;28;20042;-74
2023/03/19 12:15:58;;;;;;;3.28;1.23;;;;;;;16.79;63.76;100779.03;6020755;28;20038;-74
2023/03/19 12:19:11;;;;;;;3.72;1.50;;;;;;;16.75;65.04;100767.84;6004987;28;20045;-74
2023/03/19 12:22:25;;;;;;;2.00;1.20;;;;;;;16.75;64.47;100770.53;6004947;28;20489;-74
2023/03/19 12:25:28;;;;;;;3.70;1.48;;;;;;;16.46;65.07;100755.25;6005553;28;20039;-74
2023/03/19 12:28:30;;;;;;;7.05;2.55;;;;;;;16.42;65.88;100745.06;6019849;28;20069;-74
2023/03/19 12:31:46;;;;;;;1.60;1.10;;;;;;;16.51;66.39;100762.72;6003176;28;20045;-74
2023/03/19 12:34:49;;;;;;;2.80;1.20;;;;;;;16.29;67.38;100753.75;5997602;28;20085;-74
2023/03/19 12:37:54;;;;;;;4.53;1.35;;;;;;;16.22;67.43;100762.69;6004861;28;20478;-74
2023/03/19 12:40:57;;;;;;;4.82;1.58;;;;;;;15.98;70.54;100767.22;6004807;28;20038;-75
2023/03/19 12:43:57;;;;;;;2.60;1.15;;;;;;;15.96;67.94;100757.72;6004507;28;20046;-74
2023/03/19 12:47:01;;;;;;;2.67;1.30;;;;;;;16.07;67.42;100759.97;6020405;28;20093;-73
2023/03/19 12:50:03;;;;;;;2.95;1.02;;;;;;;16.22;66.99;100766.19;6003755;28;20037;-74
2023/03/19 12:52:59;;;;;;;4.22;2.78;;;;;;;16.36;66.98;100760.00;5990155;28;20065;-74
2023/03/19 12:55:58;;;;;;;6.45;1.35;;;;;;;16.37;66.01;100761.69;6005134;28;20035;-73
2023/03/19 12:59:19;;;;;;;2.83;1.40;;;;;;;16.33;65.38;100759.56;6004207;28;20031;-74
2023/03/19 13:02:29;;;;;;;3.60;1.38;;;;;;;16.51;64.75;100755.53;6003784;28;20111;-74
2023/03/19 13:05:44;;;;;;;5.00;1.35;;;;;;;16.07;66.69;100758.13;6019621;28;20038;-73
2023/03/19 13:08:48;;;;;;;3.60;1.40;;;;;;;15.96;66.72;100768.41;6004113;28;20161;-74
2023/03/19 13:11:51;;;;;;;4.93;1.70;;;;;;;15.94;67.45;100770.44;6002821;28;20038;-74
2023/03/19 13:15:13;;;;;;;6.88;1.80;;;;;;;15.65;68.77;100749.78;6003211;28;20347;-74
2023/03/19 13:18:11;;;;;;;5.93;2.30;;;;;;;15.26;70.65;100765.84;6003387;28;20034;-73
2023/03/19 13:21:22;;;;;;;7.85;2.10;;;;;;;14.97;73.01;100771.00;6003885;28;20170;-73
2023/03/19 13:24:25;;;;;;;3.25;1.98;;;;;;;14.74;74.09;100754.03;5999370;28;20035;-73
2023/03/19 13:27:28;;;;;;;4.30;1.85;;;;;;;14.91;74.41;100766.34;6019309;28;20042;-74
2023/03/19 13:30:25;;;;;;;7.15;2.28;;;;;;;14.96;74.30;100763.13;6003921;28;20039;-74
2023/03/19 13:33:21;;;;;;;5.45;2.03;;;;;;;14.92;75.33;100754.63;6003581;28;20127;-73
2023/03/19 13:36:17;;;;;;;3.63;1.77;;;;;;;15.21;73.53;100749.50;6017545;28;20372;-73
2023/03/19 13:39:20;;;;;;;8.35;2.00;;;;;;;15.68;72.82;100753.94;6002712;28;20046;-73
2023/03/19 13:42:18;;;;;;;7.30;2.33;;;;;;;16.20;71.10;100757.50;6001575;28;20050;-74